sensor_id;sensor_type;location;lat;lon;timestamp;temperature;humidity
14192;DHT22;7177;48.572;7.838;2023-11-22T00:02:21;8.70;99.90
14192;DHT22;7177;48.572;7.838;2023-11-22T00:04:46;8.70;99.90
14192;DHT22;7177;48.572;7.838;2023-11-22T00:07:12;8.70;99.90
14192;DHT22;7177;48.572;7.838;2023-11-22T00:09:37;8.70;99.90
14192;DHT22;7177;48.572;7.838;2023-11-22T00:12:03;8.70;99.90
14192;DHT22;7177;48.572;7.838;2023-11-22T00:14:29;8.70;99.90
14192;DHT22;7177;48.572;7.838;2023-11-22T00:16:54;8.70;99.90
14192;DHT22;7177;48.572;7.838;2023-11-22T00:19:20;8.70;99.90
14192;DHT22;7177;48.572;7.838;2023-11-22T00:21:48;8.70;99.90
14192;DHT22;7177;48.572;7.838;2023-11-22T00:24:13;8.60;99.90
14192;DHT22;7177;48.572;7.838;2023-11-22T00:26:39;8.50;99.90
14192;DHT22;7177;48.572;7.838;2023-11-22T00:29:05;8.30;99.90
14192;DHT22;7177;48.572;7.838;2023-11-22T00:31:30;8.20;99.90
14192;DHT22;7177;48.572;7.838;2023-11-22T00:33:56;8.10;99.90
14192;DHT22;7177;48.572;7.838;2023-11-22T00:36:22;7.90;99.90
14192;DHT22;7177;48.572;7.838;2023-11-22T00:38:47;7.80;99.90
14192;DHT22;7177;48.572;7.838;2023-11-22T00:41:13;7.80;99.90
14192;DHT22;7177;48.572;7.838;2023-11-22T00:43:40;7.40;99.90
14192;DHT22;7177;48.572;7.838;2023-11-22T00:46:05;7.40;99.90
14192;DHT22;7177;48.572;7.838;2023-11-22T00:48:31;7.20;99.90
14192;DHT22;7177;48.572;7.838;2023-11-22T00:50:57;7.20;99.90
14192;DHT22;7177;48.572;7.838;2023-11-22T00:53:22;7.00;99.90
14192;DHT22;7177;48.572;7.838;2023-11-22T00:55:48;7.00;99.90
14192;DHT22;7177;48.572;7.838;2023-11-22T00:58:14;6.90;99.90
14192;DHT22;7177;48.572;7.838;2023-11-22T01:00:40;6.90;99.90
14192;DHT22;7177;48.572;7.838;2023-11-22T01:03:06;6.80;99.90
14192;DHT22;7177;48.572;7.838;2023-11-22T01:05:34;6.80;99.90
14192;DHT22;7177;48.572;7.838;2023-11-22T01:07:59;6.70;99.90
14192;DHT22;7177;48.572;7.838;2023-11-22T01:10:25;6.70;99.90
14192;DHT22;7177;48.572;7.838;2023-11-22T01:12:50;6.80;99.90
14192;DHT22;7177;48.572;7.838;2023-11-22T01:15:16;6.70;99.90
14192;DHT22;7177;48.572;7.838;2023-11-22T01:17:42;6.70;99.90
14192;DHT22;7177;48.572;7.838;2023-11-22T01:20:08;6.70;99.90
14192;DHT22;7177;48.572;7.838;2023-11-22T01:22:35;6.60;99.90
14192;DHT22;7177;48.572;7.838;2023-11-22T01:25:03;6.60;99.90
14192;DHT22;7177;48.572;7.838;2023-11-22T01:27:29;6.40;99.90
14192;DHT22;7177;48.572;7.838;2023-11-22T01:29:55;6.40;99.90
14192;DHT22;7177;48.572;7.838;2023-11-22T01:32:21;6.40;99.90
14192;DHT22;7177;48.572;7.838;2023-11-22T01:34:46;6.40;99.90
14192;DHT22;7177;48.572;7.838;2023-11-22T01:37:13;6.30;99.90
14192;DHT22;7177;48.572;7.838;2023-11-22T01:39:41;6.30;99.90
14192;DHT22;7177;48.572;7.838;2023-11-22T01:42:07;6.30;99.90
14192;DHT22;7177;48.572;7.838;2023-11-22T01:44:33;6.20;99.90
14192;DHT22;7177;48.572;7.838;2023-11-22T01:46:58;6.20;99.90
14192;DHT22;7177;48.572;7.838;2023-11-22T01:49:24;6.20;99.90
14192;DHT22;7177;48.572;7.838;2023-11-22T01:51:49;6.10;99.90
14192;DHT22;7177;48.572;7.838;2023-11-22T01:54:16;6.00;99.90
14192;DHT22;7177;48.572;7.838;2023-11-22T01:56:44;5.90;99.90
14192;DHT22;7177;48.572;7.838;2023-11-22T01:59:10;5.90;99.90
14192;DHT22;7177;48.572;7.838;2023-11-22T02:01:36;5.80;99.90
14192;DHT22;7177;48.572;7.838;2023-11-22T02:04:02;5.80;99.90
14192;DHT22;7177;48.572;7.838;2023-11-22T02:06:28;5.70;99.90
14192;DHT22;7177;48.572;7.838;2023-11-22T02:08:56;5.70;99.90
14192;DHT22;7177;48.572;7.838;2023-11-22T02:11:22;5.60;99.90
14192;DHT22;7177;48.572;7.838;2023-11-22T02:13:50;5.60;99.90
14192;DHT22;7177;48.572;7.838;2023-11-22T02:16:16;5.60;99.90
14192;DHT22;7177;48.572;7.838;2023-11-22T02:18:44;5.60;99.90
14192;DHT22;7177;48.572;7.838;2023-11-22T02:21:09;5.50;99.90
14192;DHT22;7177;48.572;7.838;2023-11-22T02:23:36;5.50;99.90
14192;DHT22;7177;48.572;7.838;2023-11-22T02:26:02;5.40;99.90
14192;DHT22;7177;48.572;7.838;2023-11-22T02:28:27;5.40;99.90
14192;DHT22;7177;48.572;7.838;2023-11-22T02:30:53;5.30;99.90
14192;DHT22;7177;48.572;7.838;2023-11-22T02:33:20;5.20;99.90
14192;DHT22;7177;48.572;7.838;2023-11-22T02:35:45;5.20;99.90
14192;DHT22;7177;48.572;7.838;2023-11-22T02:38:11;5.10;99.90
14192;DHT22;7177;48.572;7.838;2023-11-22T02:40:36;5.20;99.90
14192;DHT22;7177;48.572;7.838;2023-11-22T02:43:02;5.20;99.90
14192;DHT22;7177;48.572;7.838;2023-11-22T02:45:32;5.20;99.90
14192;DHT22;7177;48.572;7.838;2023-11-22T02:47:58;5.10;99.90
14192;DHT22;7177;48.572;7.838;2023-11-22T02:50:24;5.10;99.90
14192;DHT22;7177;48.572;7.838;2023-11-22T02:52:50;5.00;99.90
14192;DHT22;7177;48.572;7.838;2023-11-22T02:55:16;5.00;99.90
14192;DHT22;7177;48.572;7.838;2023-11-22T02:57:42;5.00;99.90
14192;DHT22;7177;48.572;7.838;2023-11-22T03:00:08;5.00;99.90
14192;DHT22;7177;48.572;7.838;2023-11-22T03:02:35;5.00;99.90
14192;DHT22;7177;48.572;7.838;2023-11-22T03:05:01;5.10;99.90
14192;DHT22;7177;48.572;7.838;2023-11-22T03:07:26;5.10;99.90
14192;DHT22;7177;48.572;7.838;2023-11-22T03:09:52;5.10;99.90
14192;DHT22;7177;48.572;7.838;2023-11-22T03:12:19;5.00;99.90
14192;DHT22;7177;48.572;7.838;2023-11-22T03:14:48;5.10;99.90
14192;DHT22;7177;48.572;7.838;2023-11-22T03:17:16;5.10;99.90
14192;DHT22;7177;48.572;7.838;2023-11-22T03:19:43;5.10;99.90
14192;DHT22;7177;48.572;7.838;2023-11-22T03:22:10;5.10;99.90
14192;DHT22;7177;48.572;7.838;2023-11-22T03:24:36;5.10;99.90
14192;DHT22;7177;48.572;7.838;2023-11-22T03:27:02;5.10;99.90
14192;DHT22;7177;48.572;7.838;2023-11-22T03:29:29;5.10;99.90
14192;DHT22;7177;48.572;7.838;2023-11-22T03:31:54;5.10;99.90
14192;DHT22;7177;48.572;7.838;2023-11-22T03:34:20;5.20;99.90
14192;DHT22;7177;48.572;7.838;2023-11-22T03:36:46;5.20;99.90
14192;DHT22;7177;48.572;7.838;2023-11-22T03:39:12;5.20;99.90
14192;DHT22;7177;48.572;7.838;2023-11-22T03:41:40;5.20;99.90
14192;DHT22;7177;48.572;7.838;2023-11-22T03:44:05;5.20;99.90
14192;DHT22;7177;48.572;7.838;2023-11-22T03:46:37;5.20;99.90
14192;DHT22;7177;48.572;7.838;2023-11-22T03:49:06;5.20;99.90
14192;DHT22;7177;48.572;7.838;2023-11-22T03:51:35;5.20;99.90
14192;DHT22;7177;48.572;7.838;2023-11-22T03:54:02;5.20;99.90
14192;DHT22;7177;48.572;7.838;2023-11-22T03:56:30;5.20;99.90
14192;DHT22;7177;48.572;7.838;2023-11-22T03:58:56;5.20;99.90
14192;DHT22;7177;48.572;7.838;2023-11-22T04:01:22;5.10;99.90
14192;DHT22;7177;48.572;7.838;2023-11-22T04:03:47;5.10;99.90
14192;DHT22;7177;48.572;7.838;2023-11-22T04:06:17;5.10;99.90
14192;DHT22;7177;48.572;7.838;2023-11-22T04:08:44;5.20;99.90
14192;DHT22;7177;48.572;7.838;2023-11-22T04:11:13;5.20;99.90
14192;DHT22;7177;48.572;7.838;2023-11-22T04:13:39;5.10;99.90
14192;DHT22;7177;48.572;7.838;2023-11-22T04:16:06;5.10;99.90
14192;DHT22;7177;48.572;7.838;2023-11-22T04:18:38;5.10;99.90
14192;DHT22;7177;48.572;7.838;2023-11-22T04:21:03;5.10;99.90
14192;DHT22;7177;48.572;7.838;2023-11-22T04:23:31;5.00;99.90
14192;DHT22;7177;48.572;7.838;2023-11-22T04:25:57;5.00;99.90
14192;DHT22;7177;48.572;7.838;2023-11-22T04:28:24;4.90;99.90
14192;DHT22;7177;48.572;7.838;2023-11-22T04:30:49;4.90;99.90
14192;DHT22;7177;48.572;7.838;2023-11-22T04:33:15;4.90;99.90
14192;DHT22;7177;48.572;7.838;2023-11-22T04:35:40;4.90;99.90
14192;DHT22;7177;48.572;7.838;2023-11-22T04:38:07;5.00;99.90
14192;DHT22;7177;48.572;7.838;2023-11-22T04:40:32;4.90;99.90
14192;DHT22;7177;48.572;7.838;2023-11-22T04:42:59;4.90;99.90
14192;DHT22;7177;48.572;7.838;2023-11-22T04:45:24;4.80;99.90
14192;DHT22;7177;48.572;7.838;2023-11-22T04:47:50;4.80;99.90
14192;DHT22;7177;48.572;7.838;2023-11-22T04:50:16;4.90;99.90
14192;DHT22;7177;48.572;7.838;2023-11-22T04:52:41;4.90;99.90
14192;DHT22;7177;48.572;7.838;2023-11-22T04:55:07;4.90;99.90
14192;DHT22;7177;48.572;7.838;2023-11-22T04:57:33;4.90;99.90
14192;DHT22;7177;48.572;7.838;2023-11-22T04:59:58;5.00;99.90
14192;DHT22;7177;48.572;7.838;2023-11-22T05:02:26;5.10;99.90
14192;DHT22;7177;48.572;7.838;2023-11-22T05:04:52;5.10;99.90
14192;DHT22;7177;48.572;7.838;2023-11-22T05:07:18;5.00;99.90
14192;DHT22;7177;48.572;7.838;2023-11-22T05:09:44;4.90;99.90
14192;DHT22;7177;48.572;7.838;2023-11-22T05:12:10;4.90;99.90
14192;DHT22;7177;48.572;7.838;2023-11-22T05:14:37;4.60;99.90
14192;DHT22;7177;48.572;7.838;2023-11-22T05:17:03;4.60;99.90
14192;DHT22;7177;48.572;7.838;2023-11-22T05:19:30;4.40;99.90
14192;DHT22;7177;48.572;7.838;2023-11-22T05:24:21;4.30;99.90
14192;DHT22;7177;48.572;7.838;2023-11-22T05:26:47;4.30;99.90
14192;DHT22;7177;48.572;7.838;2023-11-22T05:29:12;4.10;99.90
14192;DHT22;7177;48.572;7.838;2023-11-22T05:31:38;4.10;99.90
14192;DHT22;7177;48.572;7.838;2023-11-22T05:36:30;3.80;99.90
14192;DHT22;7177;48.572;7.838;2023-11-22T05:38:56;3.80;99.90
14192;DHT22;7177;48.572;7.838;2023-11-22T05:41:27;3.70;99.90
14192;DHT22;7177;48.572;7.838;2023-11-22T05:43:53;3.70;99.90
14192;DHT22;7177;48.572;7.838;2023-11-22T05:46:20;3.60;99.90
14192;DHT22;7177;48.572;7.838;2023-11-22T05:48:48;3.60;99.90
14192;DHT22;7177;48.572;7.838;2023-11-22T05:51:15;3.50;99.90
14192;DHT22;7177;48.572;7.838;2023-11-22T05:53:41;3.40;99.90
14192;DHT22;7177;48.572;7.838;2023-11-22T05:56:06;3.30;99.90
14192;DHT22;7177;48.572;7.838;2023-11-22T05:58:34;3.20;99.90
14192;DHT22;7177;48.572;7.838;2023-11-22T06:01:02;3.20;99.90
14192;DHT22;7177;48.572;7.838;2023-11-22T06:03:27;3.20;99.90
14192;DHT22;7177;48.572;7.838;2023-11-22T06:05:53;3.10;99.90
14192;DHT22;7177;48.572;7.838;2023-11-22T06:08:19;3.20;99.90
14192;DHT22;7177;48.572;7.838;2023-11-22T06:10:44;3.20;99.90
14192;DHT22;7177;48.572;7.838;2023-11-22T06:13:10;3.20;99.90
14192;DHT22;7177;48.572;7.838;2023-11-22T06:15:37;3.20;99.90
14192;DHT22;7177;48.572;7.838;2023-11-22T06:18:03;3.20;99.90
14192;DHT22;7177;48.572;7.838;2023-11-22T06:20:28;3.10;99.90
14192;DHT22;7177;48.572;7.838;2023-11-22T06:22:54;3.10;99.90
14192;DHT22;7177;48.572;7.838;2023-11-22T06:25:19;3.20;99.90
14192;DHT22;7177;48.572;7.838;2023-11-22T06:27:45;3.10;99.90
14192;DHT22;7177;48.572;7.838;2023-11-22T06:30:10;3.10;99.90
14192;DHT22;7177;48.572;7.838;2023-11-22T06:32:36;3.10;99.90
14192;DHT22;7177;48.572;7.838;2023-11-22T06:35:01;3.00;99.90
14192;DHT22;7177;48.572;7.838;2023-11-22T06:37:28;3.00;99.90
14192;DHT22;7177;48.572;7.838;2023-11-22T06:39:53;3.00;99.90
14192;DHT22;7177;48.572;7.838;2023-11-22T06:42:19;3.00;99.90
14192;DHT22;7177;48.572;7.838;2023-11-22T06:44:45;3.00;99.90
14192;DHT22;7177;48.572;7.838;2023-11-22T06:47:13;3.00;99.90
14192;DHT22;7177;48.572;7.838;2023-11-22T06:49:39;3.00;99.90
14192;DHT22;7177;48.572;7.838;2023-11-22T06:52:04;2.90;99.90
14192;DHT22;7177;48.572;7.838;2023-11-22T06:54:30;3.00;99.90
14192;DHT22;7177;48.572;7.838;2023-11-22T06:56:56;2.90;99.90
14192;DHT22;7177;48.572;7.838;2023-11-22T06:59:22;2.80;99.90
14192;DHT22;7177;48.572;7.838;2023-11-22T07:01:48;2.80;99.90
14192;DHT22;7177;48.572;7.838;2023-11-22T07:04:13;2.80;99.90
14192;DHT22;7177;48.572;7.838;2023-11-22T07:06:39;2.70;99.90
14192;DHT22;7177;48.572;7.838;2023-11-22T07:09:05;2.70;99.90
14192;DHT22;7177;48.572;7.838;2023-11-22T07:11:31;2.90;99.90
14192;DHT22;7177;48.572;7.838;2023-11-22T07:13:57;2.90;99.90
14192;DHT22;7177;48.572;7.838;2023-11-22T07:16:23;2.80;99.90
14192;DHT22;7177;48.572;7.838;2023-11-22T07:18:50;3.00;99.90
14192;DHT22;7177;48.572;7.838;2023-11-22T07:21:16;3.00;99.90
14192;DHT22;7177;48.572;7.838;2023-11-22T07:23:42;2.90;99.90
14192;DHT22;7177;48.572;7.838;2023-11-22T07:26:08;2.90;99.90
14192;DHT22;7177;48.572;7.838;2023-11-22T07:28:33;2.80;99.90
14192;DHT22;7177;48.572;7.838;2023-11-22T07:31:01;2.90;99.90
14192;DHT22;7177;48.572;7.838;2023-11-22T07:33:27;2.90;99.90
14192;DHT22;7177;48.572;7.838;2023-11-22T07:35:53;3.00;99.90
14192;DHT22;7177;48.572;7.838;2023-11-22T07:38:19;3.20;99.90
14192;DHT22;7177;48.572;7.838;2023-11-22T07:40:45;3.50;99.90
14192;DHT22;7177;48.572;7.838;2023-11-22T07:43:10;3.60;99.90
14192;DHT22;7177;48.572;7.838;2023-11-22T07:45:36;4.50;99.90
14192;DHT22;7177;48.572;7.838;2023-11-22T07:48:03;4.70;99.90
14192;DHT22;7177;48.572;7.838;2023-11-22T07:50:29;4.90;99.90
14192;DHT22;7177;48.572;7.838;2023-11-22T07:52:55;5.00;99.90
14192;DHT22;7177;48.572;7.838;2023-11-22T07:55:21;5.30;99.90
14192;DHT22;7177;48.572;7.838;2023-11-22T07:57:48;5.80;99.90
14192;DHT22;7177;48.572;7.838;2023-11-22T08:00:15;6.30;99.90
14192;DHT22;7177;48.572;7.838;2023-11-22T08:02:45;6.80;99.90
14192;DHT22;7177;48.572;7.838;2023-11-22T08:05:10;7.30;99.90
14192;DHT22;7177;48.572;7.838;2023-11-22T08:07:38;7.40;99.90
14192;DHT22;7177;48.572;7.838;2023-11-22T08:10:07;7.30;99.90
14192;DHT22;7177;48.572;7.838;2023-11-22T08:12:36;7.10;99.90
14192;DHT22;7177;48.572;7.838;2023-11-22T08:15:04;6.90;99.90
14192;DHT22;7177;48.572;7.838;2023-11-22T08:17:30;6.80;99.90
14192;DHT22;7177;48.572;7.838;2023-11-22T08:19:58;7.00;99.90
14192;DHT22;7177;48.572;7.838;2023-11-22T08:22:24;7.40;99.90
14192;DHT22;7177;48.572;7.838;2023-11-22T08:24:53;7.80;99.90
14192;DHT22;7177;48.572;7.838;2023-11-22T08:27:19;7.80;99.90
14192;DHT22;7177;48.572;7.838;2023-11-22T08:29:44;8.10;99.90
14192;DHT22;7177;48.572;7.838;2023-11-22T08:32:12;8.40;99.90
14192;DHT22;7177;48.572;7.838;2023-11-22T08:34:38;8.40;99.90
14192;DHT22;7177;48.572;7.838;2023-11-22T08:37:04;8.20;99.90
14192;DHT22;7177;48.572;7.838;2023-11-22T08:39:29;8.00;99.90
14192;DHT22;7177;48.572;7.838;2023-11-22T08:41:55;7.90;99.90
14192;DHT22;7177;48.572;7.838;2023-11-22T08:44:20;8.10;99.90
14192;DHT22;7177;48.572;7.838;2023-11-22T08:46:46;8.10;99.90
14192;DHT22;7177;48.572;7.838;2023-11-22T08:49:12;8.20;99.90
14192;DHT22;7177;48.572;7.838;2023-11-22T08:51:38;8.50;99.90
14192;DHT22;7177;48.572;7.838;2023-11-22T08:54:03;8.80;99.90
14192;DHT22;7177;48.572;7.838;2023-11-22T08:56:29;8.70;99.90
14192;DHT22;7177;48.572;7.838;2023-11-22T08:58:55;8.60;99.90
14192;DHT22;7177;48.572;7.838;2023-11-22T09:01:20;8.50;99.90
14192;DHT22;7177;48.572;7.838;2023-11-22T09:03:46;8.20;99.90
14192;DHT22;7177;48.572;7.838;2023-11-22T09:06:12;8.50;99.90
14192;DHT22;7177;48.572;7.838;2023-11-22T09:08:38;8.90;99.90
14192;DHT22;7177;48.572;7.838;2023-11-22T09:11:04;9.00;99.90
14192;DHT22;7177;48.572;7.838;2023-11-22T09:13:32;9.00;99.90
14192;DHT22;7177;48.572;7.838;2023-11-22T09:15:57;9.20;99.90
14192;DHT22;7177;48.572;7.838;2023-11-22T09:18:23;9.40;99.90
14192;DHT22;7177;48.572;7.838;2023-11-22T09:20:48;9.50;99.90
14192;DHT22;7177;48.572;7.838;2023-11-22T09:23:14;9.40;99.90
14192;DHT22;7177;48.572;7.838;2023-11-22T09:25:40;9.50;99.90
14192;DHT22;7177;48.572;7.838;2023-11-22T09:28:06;9.70;99.90
14192;DHT22;7177;48.572;7.838;2023-11-22T09:30:33;9.90;99.90
14192;DHT22;7177;48.572;7.838;2023-11-22T09:33:06;9.50;99.90
14192;DHT22;7177;48.572;7.838;2023-11-22T09:35:32;9.40;99.90
14192;DHT22;7177;48.572;7.838;2023-11-22T09:37:59;9.50;99.90
14192;DHT22;7177;48.572;7.838;2023-11-22T09:40:26;9.80;99.90
14192;DHT22;7177;48.572;7.838;2023-11-22T09:42:58;10.40;99.90
14192;DHT22;7177;48.572;7.838;2023-11-22T09:45:24;10.60;99.90
14192;DHT22;7177;48.572;7.838;2023-11-22T09:47:51;10.60;99.90
14192;DHT22;7177;48.572;7.838;2023-11-22T09:50:26;10.40;99.90
14192;DHT22;7177;48.572;7.838;2023-11-22T09:53:00;10.50;99.90
14192;DHT22;7177;48.572;7.838;2023-11-22T09:55:28;10.90;99.90
14192;DHT22;7177;48.572;7.838;2023-11-22T09:57:55;11.00;99.90
14192;DHT22;7177;48.572;7.838;2023-11-22T10:00:24;10.60;99.90
14192;DHT22;7177;48.572;7.838;2023-11-22T10:02:53;10.60;99.90
14192;DHT22;7177;48.572;7.838;2023-11-22T10:05:19;10.70;99.90
14192;DHT22;7177;48.572;7.838;2023-11-22T10:07:46;10.40;99.90
14192;DHT22;7177;48.572;7.838;2023-11-22T10:10:15;10.10;99.90
14192;DHT22;7177;48.572;7.838;2023-11-22T10:12:42;9.90;99.90
14192;DHT22;7177;48.572;7.838;2023-11-22T10:15:15;10.00;99.90
14192;DHT22;7177;48.572;7.838;2023-11-22T10:17:54;9.70;99.90
14192;DHT22;7177;48.572;7.838;2023-11-22T10:20:24;9.10;99.90
14192;DHT22;7177;48.572;7.838;2023-11-22T10:22:51;9.20;99.90
14192;DHT22;7177;48.572;7.838;2023-11-22T10:25:17;9.50;99.90
14192;DHT22;7177;48.572;7.838;2023-11-22T10:27:45;9.40;99.90
14192;DHT22;7177;48.572;7.838;2023-11-22T10:30:11;9.70;99.90
14192;DHT22;7177;48.572;7.838;2023-11-22T10:32:37;10.10;99.90
14192;DHT22;7177;48.572;7.838;2023-11-22T10:35:05;10.30;99.90
14192;DHT22;7177;48.572;7.838;2023-11-22T10:37:32;10.30;99.90
14192;DHT22;7177;48.572;7.838;2023-11-22T10:39:57;10.00;99.90
14192;DHT22;7177;48.572;7.838;2023-11-22T10:42:24;9.90;99.90
14192;DHT22;7177;48.572;7.838;2023-11-22T10:44:50;10.10;99.90
14192;DHT22;7177;48.572;7.838;2023-11-22T10:47:15;10.00;99.90
14192;DHT22;7177;48.572;7.838;2023-11-22T10:49:44;10.10;99.90
14192;DHT22;7177;48.572;7.838;2023-11-22T10:52:13;10.50;99.90
14192;DHT22;7177;48.572;7.838;2023-11-22T10:54:44;10.70;99.90
14192;DHT22;7177;48.572;7.838;2023-11-22T10:57:15;10.70;99.90
14192;DHT22;7177;48.572;7.838;2023-11-22T10:59:43;10.60;99.90
14192;DHT22;7177;48.572;7.838;2023-11-22T11:02:16;10.80;99.90
14192;DHT22;7177;48.572;7.838;2023-11-22T11:04:47;10.60;99.90
14192;DHT22;7177;48.572;7.838;2023-11-22T11:07:17;10.60;99.90
14192;DHT22;7177;48.572;7.838;2023-11-22T11:09:45;10.30;99.90
14192;DHT22;7177;48.572;7.838;2023-11-22T11:12:12;9.70;99.90
14192;DHT22;7177;48.572;7.838;2023-11-22T11:14:37;8.90;99.90
14192;DHT22;7177;48.572;7.838;2023-11-22T11:17:05;8.50;99.90
14192;DHT22;7177;48.572;7.838;2023-11-22T11:19:31;11.00;99.90
14192;DHT22;7177;48.572;7.838;2023-11-22T11:21:57;9.00;99.90
14192;DHT22;7177;48.572;7.838;2023-11-22T11:24:23;8.90;99.90
14192;DHT22;7177;48.572;7.838;2023-11-22T11:26:49;8.90;99.90
14192;DHT22;7177;48.572;7.838;2023-11-22T11:29:33;8.80;99.90
14192;DHT22;7177;48.572;7.838;2023-11-22T11:31:58;9.40;99.90
14192;DHT22;7177;48.572;7.838;2023-11-22T11:34:24;9.40;99.90
14192;DHT22;7177;48.572;7.838;2023-11-22T11:36:53;9.20;99.90
14192;DHT22;7177;48.572;7.838;2023-11-22T11:39:25;8.40;99.90
14192;DHT22;7177;48.572;7.838;2023-11-22T11:42:10;7.60;99.90
14192;DHT22;7177;48.572;7.838;2023-11-22T11:44:36;7.10;99.90
14192;DHT22;7177;48.572;7.838;2023-11-22T11:47:11;6.90;99.90
14192;DHT22;7177;48.572;7.838;2023-11-22T11:49:40;7.00;99.90
14192;DHT22;7177;48.572;7.838;2023-11-22T11:52:06;7.10;99.90
14192;DHT22;7177;48.572;7.838;2023-11-22T11:54:33;7.10;99.90
14192;DHT22;7177;48.572;7.838;2023-11-22T11:57:01;7.10;99.90
14192;DHT22;7177;48.572;7.838;2023-11-22T11:59:28;7.30;99.90
14192;DHT22;7177;48.572;7.838;2023-11-22T12:01:55;7.60;99.90
14192;DHT22;7177;48.572;7.838;2023-11-22T12:04:23;7.90;99.90
14192;DHT22;7177;48.572;7.838;2023-11-22T12:06:49;7.90;99.90
14192;DHT22;7177;48.572;7.838;2023-11-22T12:09:25;7.70;99.90
14192;DHT22;7177;48.572;7.838;2023-11-22T12:11:51;7.80;99.90
14192;DHT22;7177;48.572;7.838;2023-11-22T12:14:19;7.60;99.90
14192;DHT22;7177;48.572;7.838;2023-11-22T12:16:45;7.60;99.90
14192;DHT22;7177;48.572;7.838;2023-11-22T12:19:21;7.40;99.90
14192;DHT22;7177;48.572;7.838;2023-11-22T12:21:48;7.30;99.90
14192;DHT22;7177;48.572;7.838;2023-11-22T12:24:14;7.30;99.90
14192;DHT22;7177;48.572;7.838;2023-11-22T12:26:45;7.20;99.90
14192;DHT22;7177;48.572;7.838;2023-11-22T12:29:12;7.20;99.90
14192;DHT22;7177;48.572;7.838;2023-11-22T12:31:50;7.00;99.90
14192;DHT22;7177;48.572;7.838;2023-11-22T12:34:17;7.00;99.90
14192;DHT22;7177;48.572;7.838;2023-11-22T12:36:45;6.90;99.90
14192;DHT22;7177;48.572;7.838;2023-11-22T12:39:11;6.80;99.90
14192;DHT22;7177;48.572;7.838;2023-11-22T12:41:47;6.90;99.90
14192;DHT22;7177;48.572;7.838;2023-11-22T12:44:13;7.30;99.90
14192;DHT22;7177;48.572;7.838;2023-11-22T12:46:46;7.60;99.90
14192;DHT22;7177;48.572;7.838;2023-11-22T12:49:14;7.70;99.90
14192;DHT22;7177;48.572;7.838;2023-11-22T12:51:46;7.80;99.90
14192;DHT22;7177;48.572;7.838;2023-11-22T12:54:12;7.90;99.90
14192;DHT22;7177;48.572;7.838;2023-11-22T12:56:37;7.80;99.90
14192;DHT22;7177;48.572;7.838;2023-11-22T12:59:03;7.90;99.90
14192;DHT22;7177;48.572;7.838;2023-11-22T13:01:29;7.90;99.90
14192;DHT22;7177;48.572;7.838;2023-11-22T13:03:54;7.70;99.90
14192;DHT22;7177;48.572;7.838;2023-11-22T13:06:20;7.60;99.90
14192;DHT22;7177;48.572;7.838;2023-11-22T13:08:45;7.20;99.90
14192;DHT22;7177;48.572;7.838;2023-11-22T13:11:11;7.00;99.90
14192;DHT22;7177;48.572;7.838;2023-11-22T13:13:36;6.80;99.90
14192;DHT22;7177;48.572;7.838;2023-11-22T13:16:02;6.60;99.90
14192;DHT22;7177;48.572;7.838;2023-11-22T13:18:30;6.40;99.90
14192;DHT22;7177;48.572;7.838;2023-11-22T13:20:56;6.40;99.90
14192;DHT22;7177;48.572;7.838;2023-11-22T13:23:21;6.40;99.90
14192;DHT22;7177;48.572;7.838;2023-11-22T13:25:47;6.30;99.90
14192;DHT22;7177;48.572;7.838;2023-11-22T13:28:12;6.30;99.90
14192;DHT22;7177;48.572;7.838;2023-11-22T13:30:38;6.10;99.90
14192;DHT22;7177;48.572;7.838;2023-11-22T13:33:04;6.00;99.90
14192;DHT22;7177;48.572;7.838;2023-11-22T13:35:31;6.10;99.90
14192;DHT22;7177;48.572;7.838;2023-11-22T13:37:58;6.10;99.90
14192;DHT22;7177;48.572;7.838;2023-11-22T13:40:24;6.20;99.90
14192;DHT22;7177;48.572;7.838;2023-11-22T13:42:52;6.10;99.90
14192;DHT22;7177;48.572;7.838;2023-11-22T13:45:19;6.00;99.90
14192;DHT22;7177;48.572;7.838;2023-11-22T13:47:47;6.00;99.90
14192;DHT22;7177;48.572;7.838;2023-11-22T13:50:17;6.20;99.90
14192;DHT22;7177;48.572;7.838;2023-11-22T13:52:50;6.10;99.90
14192;DHT22;7177;48.572;7.838;2023-11-22T13:55:17;6.10;99.90
14192;DHT22;7177;48.572;7.838;2023-11-22T13:57:45;6.00;99.90
14192;DHT22;7177;48.572;7.838;2023-11-22T14:00:11;5.80;99.90
14192;DHT22;7177;48.572;7.838;2023-11-22T14:02:40;5.70;99.90
14192;DHT22;7177;48.572;7.838;2023-11-22T14:05:06;5.70;99.90
14192;DHT22;7177;48.572;7.838;2023-11-22T14:07:36;5.90;99.90
14192;DHT22;7177;48.572;7.838;2023-11-22T14:10:03;6.00;99.90
14192;DHT22;7177;48.572;7.838;2023-11-22T14:12:29;5.90;99.90
14192;DHT22;7177;48.572;7.838;2023-11-22T14:14:56;5.90;99.90
14192;DHT22;7177;48.572;7.838;2023-11-22T14:17:22;5.90;99.90
14192;DHT22;7177;48.572;7.838;2023-11-22T14:19:49;5.80;99.90
14192;DHT22;7177;48.572;7.838;2023-11-22T14:22:14;5.80;99.90
14192;DHT22;7177;48.572;7.838;2023-11-22T14:24:40;5.80;99.90
14192;DHT22;7177;48.572;7.838;2023-11-22T14:27:05;5.70;99.90
14192;DHT22;7177;48.572;7.838;2023-11-22T14:29:31;5.80;99.90
14192;DHT22;7177;48.572;7.838;2023-11-22T14:31:58;5.90;99.90
14192;DHT22;7177;48.572;7.838;2023-11-22T14:34:24;5.80;99.90
14192;DHT22;7177;48.572;7.838;2023-11-22T14:36:49;5.70;99.90
14192;DHT22;7177;48.572;7.838;2023-11-22T14:39:15;5.60;99.90
14192;DHT22;7177;48.572;7.838;2023-11-22T14:41:41;5.50;99.90
14192;DHT22;7177;48.572;7.838;2023-11-22T14:44:07;5.50;99.90
14192;DHT22;7177;48.572;7.838;2023-11-22T14:46:34;5.50;99.90
14192;DHT22;7177;48.572;7.838;2023-11-22T14:49:02;5.60;99.90
14192;DHT22;7177;48.572;7.838;2023-11-22T14:51:28;5.50;99.90
14192;DHT22;7177;48.572;7.838;2023-11-22T14:53:54;5.40;99.90
14192;DHT22;7177;48.572;7.838;2023-11-22T14:56:19;5.40;99.90
14192;DHT22;7177;48.572;7.838;2023-11-22T14:58:45;5.40;99.90
14192;DHT22;7177;48.572;7.838;2023-11-22T15:01:18;5.30;99.90
14192;DHT22;7177;48.572;7.838;2023-11-22T15:03:43;5.30;99.90
14192;DHT22;7177;48.572;7.838;2023-11-22T15:06:10;5.30;99.90
14192;DHT22;7177;48.572;7.838;2023-11-22T15:08:35;5.40;99.90
14192;DHT22;7177;48.572;7.838;2023-11-22T15:11:01;5.20;99.90
14192;DHT22;7177;48.572;7.838;2023-11-22T15:13:26;5.20;99.90
14192;DHT22;7177;48.572;7.838;2023-11-22T15:15:53;5.30;99.90
14192;DHT22;7177;48.572;7.838;2023-11-22T15:18:18;5.30;99.90
14192;DHT22;7177;48.572;7.838;2023-11-22T15:20:44;5.20;99.90
14192;DHT22;7177;48.572;7.838;2023-11-22T15:23:09;5.10;99.90
14192;DHT22;7177;48.572;7.838;2023-11-22T15:25:35;5.20;99.90
14192;DHT22;7177;48.572;7.838;2023-11-22T15:28:00;5.30;99.90
14192;DHT22;7177;48.572;7.838;2023-11-22T15:30:26;5.30;99.90
14192;DHT22;7177;48.572;7.838;2023-11-22T15:32:51;5.20;99.90
14192;DHT22;7177;48.572;7.838;2023-11-22T15:35:18;5.10;99.90
14192;DHT22;7177;48.572;7.838;2023-11-22T15:37:44;4.90;99.90
14192;DHT22;7177;48.572;7.838;2023-11-22T15:40:10;5.00;99.90
14192;DHT22;7177;48.572;7.838;2023-11-22T15:42:38;5.10;99.90
14192;DHT22;7177;48.572;7.838;2023-11-22T15:45:05;5.10;99.90
14192;DHT22;7177;48.572;7.838;2023-11-22T15:47:32;5.10;99.90
14192;DHT22;7177;48.572;7.838;2023-11-22T15:49:57;5.10;99.90
14192;DHT22;7177;48.572;7.838;2023-11-22T15:52:23;5.00;99.90
14192;DHT22;7177;48.572;7.838;2023-11-22T15:54:49;4.80;99.90
14192;DHT22;7177;48.572;7.838;2023-11-22T15:57:15;4.80;99.90
14192;DHT22;7177;48.572;7.838;2023-11-22T15:59:40;4.90;99.90
14192;DHT22;7177;48.572;7.838;2023-11-22T16:02:06;4.80;99.90